createdAt,value
2019-03-26T00:01:55.009Z,67.25
2019-03-26T00:04:23.391Z,66.39
2019-03-26T00:06:51.786Z,67.02
2019-03-26T00:09:20.219Z,66.24
2019-03-26T00:11:48.607Z,66.55
2019-03-26T00:14:17.070Z,67.14
2019-03-26T00:16:45.497Z,66.69
2019-03-26T00:19:13.894Z,66.37
2019-03-26T00:21:42.290Z,66.49
2019-03-26T00:24:11.284Z,66.26
2019-03-26T00:26:39.960Z,66.33
2019-03-26T00:29:08.358Z,65.08
2019-03-26T00:31:36.773Z,65.43
2019-03-26T00:34:18.334Z,65.23
2019-03-26T00:36:35.283Z,65.85
2019-03-26T00:39:05.817Z,65.95
2019-03-26T00:41:34.213Z,65.29
2019-03-26T00:44:02.617Z,64.97
2019-03-26T00:46:31.032Z,65.20
2019-03-26T00:48:59.423Z,64.27
2019-03-26T00:51:27.833Z,64.00
2019-03-26T00:53:56.313Z,64.07
2019-03-26T00:56:24.712Z,64.21
2019-03-26T00:58:53.388Z,62.97
2019-03-26T01:01:21.780Z,63.01
2019-03-26T01:03:50.175Z,63.40
2019-03-26T01:06:18.591Z,63.18
2019-03-26T01:08:47.052Z,62.71
2019-03-26T01:11:15.446Z,63.33
2019-03-26T01:13:43.861Z,62.92
2019-03-26T01:16:12.251Z,62.56
2019-03-26T01:18:40.655Z,62.55
2019-03-26T01:21:09.059Z,62.79
2019-03-26T01:23:37.789Z,62.83
2019-03-26T01:26:06.186Z,62.96
2019-03-26T01:28:34.942Z,63.23
2019-03-26T01:31:03.338Z,63.47
2019-03-26T01:33:32.004Z,63.52
2019-03-26T01:36:00.427Z,63.91
2019-03-26T01:38:28.899Z,63.87
2019-03-26T01:40:57.289Z,63.97
2019-03-26T01:43:25.731Z,64.02
2019-03-26T01:45:54.125Z,64.77
2019-03-26T01:48:22.530Z,64.21
2019-03-26T01:50:50.942Z,64.03
2019-03-26T01:53:20.415Z,64.27
2019-03-26T01:55:48.817Z,64.51
2019-03-26T01:58:17.241Z,64.36
2019-03-26T02:00:45.629Z,64.29
2019-03-26T02:03:14.026Z,64.10
2019-03-26T02:05:42.433Z,63.84
2019-03-26T02:08:10.829Z,64.01
2019-03-26T02:10:39.221Z,63.73
2019-03-26T02:13:08.207Z,63.93
2019-03-26T02:15:36.596Z,63.60
2019-03-26T02:18:05.783Z,63.34
2019-03-26T02:20:34.334Z,62.73
2019-03-26T02:23:02.866Z,62.55
2019-03-26T02:25:31.262Z,61.87
2019-03-26T02:27:59.677Z,60.24
2019-03-26T02:30:28.717Z,59.85
2019-03-26T02:32:57.823Z,60.02
2019-03-26T02:35:26.232Z,60.46
2019-03-26T02:37:54.637Z,58.54
2019-03-26T02:40:23.201Z,58.85
2019-03-26T02:42:51.616Z,57.95
2019-03-26T02:45:20.014Z,57.79
2019-03-26T02:47:48.690Z,57.12
2019-03-26T02:50:17.204Z,57.29
2019-03-26T02:52:45.573Z,57.72
2019-03-26T02:55:14.034Z,58.36
2019-03-26T02:57:43.101Z,58.22
2019-03-26T03:00:11.833Z,58.71
2019-03-26T03:02:40.222Z,58.24
2019-03-26T03:05:09.571Z,58.71
2019-03-26T03:07:37.969Z,58.80
2019-03-26T03:10:07.198Z,58.74
2019-03-26T03:12:35.616Z,58.85
2019-03-26T03:15:05.647Z,59.19
2019-03-26T03:17:34.034Z,59.14
2019-03-26T03:20:03.523Z,59.23
2019-03-26T03:22:31.917Z,59.79
2019-03-26T03:25:00.536Z,59.01
2019-03-26T03:27:29.016Z,59.44
2019-03-26T03:29:57.488Z,59.19
2019-03-26T03:32:26.246Z,60.11
2019-03-26T03:34:54.651Z,60.68
2019-03-26T03:37:23.036Z,59.76
2019-03-26T03:39:51.527Z,59.68
2019-03-26T03:42:19.917Z,59.84
2019-03-26T03:44:48.309Z,60.42
2019-03-26T03:47:19.031Z,60.87
2019-03-26T03:49:47.860Z,59.69
2019-03-26T03:52:17.696Z,59.19
2019-03-26T03:54:47.795Z,59.52
2019-03-26T03:57:17.960Z,59.86
2019-03-26T03:59:47.004Z,60.20
2019-03-26T04:02:15.418Z,60.27
2019-03-26T04:04:43.827Z,60.10
2019-03-26T04:07:12.212Z,59.92
2019-03-26T04:09:41.110Z,60.26
2019-03-26T04:12:09.495Z,60.04
2019-03-26T04:14:37.880Z,60.50
2019-03-26T04:17:06.297Z,60.75
2019-03-26T04:19:34.692Z,61.75
2019-03-26T04:22:03.104Z,61.74
2019-03-26T04:24:31.505Z,61.23
2019-03-26T04:26:59.905Z,61.00
2019-03-26T04:29:28.297Z,60.59
2019-03-26T04:31:56.731Z,60.52
2019-03-26T04:34:25.139Z,61.01
2019-03-26T04:36:53.508Z,60.15
2019-03-26T04:39:21.926Z,60.19
2019-03-26T04:41:50.322Z,58.47
2019-03-26T04:44:18.719Z,57.50
2019-03-26T04:46:47.173Z,57.98
2019-03-26T04:49:15.570Z,58.36
2019-03-26T04:51:43.953Z,57.60
2019-03-26T04:54:12.369Z,57.83
2019-03-26T04:56:40.798Z,58.06
2019-03-26T04:59:09.197Z,57.78
2019-03-26T05:01:37.615Z,58.68
2019-03-26T05:04:06.009Z,59.13
2019-03-26T05:06:38.192Z,58.79
2019-03-26T05:09:05.351Z,58.25
2019-03-26T05:11:33.733Z,58.92
2019-03-26T05:14:02.162Z,57.66
2019-03-26T05:16:30.913Z,58.84
2019-03-26T05:19:00.923Z,58.49
2019-03-26T05:21:31.465Z,59.04
2019-03-26T05:24:00.303Z,58.90
2019-03-26T05:26:29.312Z,59.10
2019-03-26T05:28:57.728Z,59.11
2019-03-26T05:31:26.121Z,59.11
2019-03-26T05:33:54.956Z,59.35
2019-03-26T05:36:23.507Z,59.19
2019-03-26T05:38:52.153Z,59.68
2019-03-26T05:41:20.814Z,60.31
2019-03-26T05:43:49.231Z,59.95
2019-03-26T05:46:17.623Z,60.54
2019-03-26T05:48:46.032Z,60.81
2019-03-26T05:51:14.466Z,60.66
2019-03-26T05:53:42.865Z,61.20
2019-03-26T05:56:13.995Z,60.76
2019-03-26T05:58:42.385Z,60.49
2019-03-26T06:01:11.167Z,61.01
2019-03-26T06:03:39.718Z,60.78
2019-03-26T06:06:08.111Z,60.29
2019-03-26T06:08:36.529Z,61.26
2019-03-26T06:11:05.680Z,60.79
2019-03-26T06:13:34.930Z,61.35
2019-03-26T06:16:03.282Z,60.82
2019-03-26T06:18:31.941Z,60.77
2019-03-26T06:21:00.364Z,61.26
2019-03-26T06:23:28.764Z,60.42
2019-03-26T06:25:57.195Z,62.18
2019-03-26T06:28:25.620Z,62.13
2019-03-26T06:30:54.363Z,61.05
2019-03-26T06:33:22.760Z,60.55
2019-03-26T06:35:51.349Z,60.20
2019-03-26T06:38:19.738Z,59.38
2019-03-26T06:40:48.135Z,59.31
2019-03-26T06:43:16.556Z,59.39
2019-03-26T06:45:44.956Z,58.14
2019-03-26T06:48:13.344Z,58.26
2019-03-26T06:50:41.757Z,58.67
2019-03-26T06:53:10.146Z,57.58
2019-03-26T06:55:39.108Z,57.15
2019-03-26T06:58:07.532Z,57.96
2019-03-26T07:00:36.094Z,57.79
2019-03-26T07:03:06.525Z,57.32
2019-03-26T07:05:34.970Z,57.51
2019-03-26T07:08:03.434Z,56.92
2019-03-26T07:10:31.897Z,56.52
2019-03-26T07:13:00.314Z,56.31
2019-03-26T07:15:28.707Z,56.37
2019-03-26T07:17:57.097Z,56.41
2019-03-26T07:20:25.512Z,56.13
2019-03-26T07:22:54.077Z,56.87
2019-03-26T07:25:22.537Z,57.01
2019-03-26T07:27:50.952Z,55.53
2019-03-26T07:30:38.620Z,54.80
2019-03-26T07:33:07.031Z,54.35
2019-03-26T07:35:35.430Z,53.97
2019-03-26T07:38:03.986Z,53.97
2019-03-26T07:40:32.566Z,53.82
2019-03-26T07:43:00.958Z,54.65
2019-03-26T07:45:29.420Z,53.95
2019-03-26T07:47:57.835Z,53.65
2019-03-26T07:50:26.229Z,53.17
2019-03-26T07:52:54.655Z,53.57
2019-03-26T07:55:23.075Z,53.88
2019-03-26T07:57:51.544Z,53.90
2019-03-26T08:00:25.762Z,53.29
2019-03-26T08:02:54.179Z,53.32
2019-03-26T08:05:29.698Z,53.86
2019-03-26T08:07:58.167Z,53.70
2019-03-26T08:10:22.859Z,53.25
2019-03-26T08:12:51.267Z,53.95
2019-03-26T08:15:20.338Z,53.54
2019-03-26T08:17:48.945Z,53.53
2019-03-26T08:20:17.407Z,53.06
2019-03-26T08:22:45.809Z,53.47
2019-03-26T08:25:14.289Z,54.65
2019-03-26T08:27:42.689Z,54.81
2019-03-26T08:30:11.520Z,53.78
2019-03-26T08:32:39.937Z,52.85
2019-03-26T08:35:08.399Z,52.39
2019-03-26T08:37:36.813Z,52.81
2019-03-26T08:40:07.470Z,51.31
2019-03-26T08:42:35.860Z,51.58
2019-03-26T08:45:08.308Z,51.38
2019-03-26T08:47:36.746Z,51.70
2019-03-26T08:50:07.074Z,51.57
2019-03-26T08:52:35.521Z,51.48
2019-03-26T08:55:05.358Z,51.27
2019-03-26T08:57:34.021Z,50.69
2019-03-26T09:00:02.416Z,51.13
2019-03-26T09:02:30.837Z,51.89
2019-03-26T09:04:59.228Z,51.38
2019-03-26T09:07:27.617Z,52.28
2019-03-26T09:09:56.027Z,51.69
2019-03-26T09:12:24.419Z,54.27
2019-03-26T09:14:53.061Z,53.53
2019-03-26T09:17:21.479Z,50.52
2019-03-26T09:19:49.870Z,50.87
2019-03-26T09:22:18.285Z,51.47
2019-03-26T09:24:46.675Z,51.21
2019-03-26T09:27:15.090Z,50.58
2019-03-26T09:29:43.754Z,50.75
2019-03-26T09:32:12.437Z,51.49
2019-03-26T09:34:40.860Z,49.88
2019-03-26T09:37:09.247Z,49.49
2019-03-26T09:39:38.482Z,50.17
2019-03-26T09:42:07.053Z,49.97
2019-03-26T09:44:35.443Z,50.33
2019-03-26T09:47:15.658Z,50.04
2019-03-26T09:49:34.344Z,51.15
2019-03-26T09:52:02.679Z,49.91
2019-03-26T09:54:31.091Z,49.21
2019-03-26T09:56:59.552Z,49.45
2019-03-26T09:59:27.949Z,49.80
2019-03-26T10:01:56.369Z,47.36
2019-03-26T10:04:25.041Z,47.82
2019-03-26T10:06:53.435Z,46.16
2019-03-26T10:09:21.851Z,46.81
2019-03-26T10:11:50.245Z,45.90
2019-03-26T10:14:18.634Z,46.62
2019-03-26T10:16:47.229Z,46.44
2019-03-26T10:19:17.138Z,45.26
2019-03-26T10:21:45.760Z,44.74
2019-03-26T10:24:14.353Z,44.52
2019-03-26T10:26:42.745Z,42.71
2019-03-26T10:29:28.815Z,42.65
2019-03-26T10:31:41.304Z,42.55
2019-03-26T10:34:09.705Z,42.27
2019-03-26T10:36:41.455Z,42.35
2019-03-26T10:39:08.986Z,40.27
2019-03-26T10:41:37.488Z,39.37
2019-03-26T10:44:05.859Z,40.64
2019-03-26T10:46:34.282Z,39.76
2019-03-26T10:49:02.674Z,39.64
2019-03-26T10:51:31.069Z,38.73
2019-03-26T10:53:59.491Z,40.50
2019-03-26T10:56:27.889Z,38.50
2019-03-26T10:58:56.312Z,38.08
2019-03-26T11:01:24.758Z,39.52
2019-03-26T11:03:53.151Z,38.99
2019-03-26T11:06:21.714Z,39.24
2019-03-26T11:08:50.143Z,38.39
2019-03-26T11:11:18.541Z,39.39
2019-03-26T11:13:46.935Z,41.01
2019-03-26T11:16:15.363Z,39.20
2019-03-26T11:18:43.760Z,42.06
2019-03-26T11:21:12.157Z,40.77
2019-03-26T11:23:40.585Z,41.25
2019-03-26T11:26:09.004Z,41.30
2019-03-26T11:28:37.399Z,42.26
2019-03-26T11:31:06.001Z,40.69
2019-03-26T11:33:34.423Z,40.38
2019-03-26T11:36:02.832Z,39.29
2019-03-26T11:38:31.224Z,38.11
2019-03-26T11:40:59.646Z,38.07
2019-03-26T11:43:28.956Z,37.59
2019-03-26T11:45:57.342Z,37.90
2019-03-26T11:48:25.779Z,38.56
2019-03-26T11:50:54.175Z,36.81
2019-03-26T11:53:22.738Z,38.56
2019-03-26T11:55:51.158Z,38.76
2019-03-26T11:58:29.815Z,39.18
2019-03-26T12:00:49.695Z,37.69
2019-03-26T12:03:18.117Z,37.49
2019-03-26T12:05:46.830Z,37.97
2019-03-26T12:08:15.246Z,38.81
2019-03-26T12:10:43.655Z,40.37
2019-03-26T12:13:12.066Z,37.28
2019-03-26T12:15:40.489Z,38.19
2019-03-26T12:18:09.251Z,35.59
2019-03-26T12:20:37.649Z,38.91
2019-03-26T12:23:06.102Z,36.88
2019-03-26T12:25:34.488Z,35.70
2019-03-26T12:28:02.904Z,36.02
2019-03-26T12:30:33.981Z,36.19
2019-03-26T12:33:02.373Z,35.51
2019-03-26T12:35:31.240Z,36.46
2019-03-26T12:37:59.802Z,37.45
2019-03-26T12:40:28.383Z,36.88
2019-03-26T12:42:56.832Z,36.48
2019-03-26T12:45:25.183Z,37.00
2019-03-26T12:47:53.578Z,35.41
2019-03-26T12:50:21.974Z,35.81
2019-03-26T12:52:50.397Z,35.61
2019-03-26T12:55:18.803Z,35.78
2019-03-26T12:57:47.203Z,35.93
2019-03-26T13:00:15.864Z,37.17
2019-03-26T13:02:44.266Z,37.30
2019-03-26T13:05:13.021Z,35.78
2019-03-26T13:07:41.417Z,36.33
2019-03-26T13:10:13.741Z,36.06
2019-03-26T13:12:40.325Z,36.07
2019-03-26T13:15:08.959Z,36.54
2019-03-26T13:17:37.374Z,37.45
2019-03-26T13:20:07.274Z,36.84
2019-03-26T13:22:35.683Z,37.16
2019-03-26T13:25:06.121Z,37.28
2019-03-26T13:27:34.536Z,37.65
2019-03-26T13:30:03.103Z,36.71
2019-03-26T13:32:31.502Z,37.51
2019-03-26T13:34:59.921Z,37.43
2019-03-26T13:37:28.326Z,38.05
2019-03-26T13:39:56.718Z,37.00
2019-03-26T13:42:25.140Z,37.49
2019-03-26T13:44:53.546Z,36.99
2019-03-26T13:47:21.939Z,36.93
2019-03-26T13:49:50.350Z,38.05
2019-03-26T13:52:19.074Z,38.35
2019-03-26T13:54:47.476Z,37.92
2019-03-26T13:57:15.893Z,38.54
2019-03-26T13:59:44.342Z,38.01
2019-03-26T14:02:12.692Z,37.74
2019-03-26T14:04:41.117Z,38.43
2019-03-26T14:07:09.512Z,37.03
2019-03-26T14:09:37.908Z,38.21
2019-03-26T14:12:06.327Z,37.86
2019-03-26T14:14:34.725Z,37.72
2019-03-26T14:17:05.551Z,37.64
2019-03-26T14:19:33.271Z,35.37
2019-03-26T14:22:01.678Z,35.23
2019-03-26T14:24:30.076Z,36.42
2019-03-26T14:26:58.492Z,36.17
2019-03-26T14:29:26.889Z,36.67
2019-03-26T14:31:55.295Z,36.39
2019-03-26T14:34:23.771Z,36.55
2019-03-26T14:36:52.173Z,36.49
2019-03-26T14:39:20.565Z,37.22
2019-03-26T14:41:48.981Z,37.36
2019-03-26T14:44:17.384Z,37.58
2019-03-26T14:46:45.780Z,38.25
2019-03-26T14:49:14.202Z,38.32
2019-03-26T14:51:42.600Z,37.37
2019-03-26T14:54:11.001Z,37.73
2019-03-26T14:56:39.419Z,37.17
2019-03-26T14:59:07.883Z,38.88
2019-03-26T15:01:36.249Z,39.06
2019-03-26T15:04:04.833Z,40.57
2019-03-26T15:06:33.242Z,39.12
2019-03-26T15:09:01.634Z,40.30
2019-03-26T15:11:30.069Z,40.46
2019-03-26T15:13:58.467Z,40.24
2019-03-26T15:16:26.864Z,40.60
2019-03-26T15:18:55.299Z,40.46
2019-03-26T15:21:23.694Z,39.91
2019-03-26T15:23:52.135Z,40.40
2019-03-26T15:26:20.512Z,41.01
2019-03-26T15:28:48.903Z,41.20
2019-03-26T15:31:17.384Z,42.70
2019-03-26T15:33:45.870Z,42.94
2019-03-26T15:36:14.253Z,42.94
2019-03-26T15:38:43.033Z,43.51
2019-03-26T15:41:21.023Z,42.96
2019-03-26T15:43:41.931Z,41.76
2019-03-26T15:46:10.378Z,41.89
2019-03-26T15:48:38.773Z,43.47
2019-03-26T15:51:07.176Z,43.19
2019-03-26T15:53:35.605Z,44.52
2019-03-26T15:56:04.072Z,44.58
2019-03-26T15:58:32.469Z,43.41
2019-03-26T16:01:01.122Z,44.44
2019-03-26T16:03:29.512Z,44.87
2019-03-26T16:05:57.902Z,44.76
2019-03-26T16:08:26.318Z,45.15
2019-03-26T16:10:54.711Z,45.52
2019-03-26T16:13:23.106Z,44.93
2019-03-26T16:15:51.961Z,45.30
2019-03-26T16:18:20.502Z,45.39
2019-03-26T16:20:48.983Z,46.11
2019-03-26T16:23:17.380Z,46.08
2019-03-26T16:25:45.771Z,46.31
2019-03-26T16:28:14.175Z,46.47
2019-03-26T16:30:42.582Z,46.71
2019-03-26T16:33:10.992Z,47.58
2019-03-26T16:35:40.426Z,48.11
2019-03-26T16:38:08.868Z,47.53
2019-03-26T16:40:37.290Z,47.67
2019-03-26T16:43:05.853Z,48.10
2019-03-26T16:45:34.257Z,48.10
2019-03-26T16:48:02.687Z,48.65
2019-03-26T16:50:31.071Z,49.33
2019-03-26T16:52:59.467Z,49.94
2019-03-26T16:55:27.877Z,49.47
2019-03-26T16:57:56.271Z,50.62
2019-03-26T17:00:32.009Z,50.87
2019-03-26T17:03:01.096Z,50.96
2019-03-26T17:05:29.784Z,51.02
2019-03-26T17:07:58.185Z,51.07
2019-03-26T17:10:26.598Z,50.80
2019-03-26T17:12:54.995Z,51.06
2019-03-26T17:15:23.393Z,50.83
2019-03-26T17:17:51.817Z,50.43
2019-03-26T17:20:20.209Z,50.83
2019-03-26T17:22:48.602Z,50.19
2019-03-26T17:25:17.018Z,50.22
2019-03-26T17:27:45.411Z,50.70
2019-03-26T17:30:14.167Z,51.06
2019-03-26T17:32:42.587Z,51.56
2019-03-26T17:35:11.532Z,51.90
2019-03-26T17:37:39.924Z,51.33
2019-03-26T17:40:08.576Z,51.20
2019-03-26T17:42:36.998Z,51.49
2019-03-26T17:45:07.091Z,51.16
2019-03-26T17:47:35.480Z,51.04
2019-03-26T17:50:07.709Z,51.59
2019-03-26T17:52:36.104Z,52.02
2019-03-26T17:55:07.040Z,51.50
2019-03-26T17:57:35.744Z,51.55
2019-03-26T18:00:06.179Z,51.71
2019-03-26T18:02:34.577Z,52.45
2019-03-26T18:05:03.064Z,51.69
2019-03-26T18:07:31.466Z,51.76
2019-03-26T18:10:00.379Z,51.83
2019-03-26T18:12:31.048Z,51.67
2019-03-26T18:14:58.891Z,51.52
2019-03-26T18:17:27.317Z,51.48
2019-03-26T18:19:55.711Z,51.66
2019-03-26T18:22:24.141Z,51.88
2019-03-26T18:24:52.559Z,51.73
2019-03-26T18:27:20.937Z,51.72
2019-03-26T18:29:49.347Z,51.71
2019-03-26T18:32:17.741Z,52.25
2019-03-26T18:34:46.140Z,52.39
2019-03-26T18:37:14.559Z,52.52
2019-03-26T18:39:43.289Z,52.84
2019-03-26T18:42:11.681Z,52.65
2019-03-26T18:44:40.105Z,52.87
2019-03-26T18:47:08.504Z,53.59
2019-03-26T18:49:36.895Z,53.67
2019-03-26T18:52:05.318Z,53.06
2019-03-26T18:54:33.710Z,53.86
2019-03-26T18:57:02.108Z,54.19
2019-03-26T18:59:30.537Z,54.25
2019-03-26T19:01:58.934Z,55.02
2019-03-26T19:04:27.335Z,54.86
2019-03-26T19:06:55.757Z,55.18
2019-03-26T19:09:24.154Z,54.91
2019-03-26T19:11:52.562Z,55.18
2019-03-26T19:14:20.971Z,55.39
2019-03-26T19:16:49.370Z,55.34
2019-03-26T19:19:17.763Z,55.92
2019-03-26T19:21:46.176Z,55.89
2019-03-26T19:24:15.447Z,56.28
2019-03-26T19:26:43.843Z,55.53
2019-03-26T19:29:12.255Z,55.50
2019-03-26T19:31:40.645Z,56.18
2019-03-26T19:34:09.048Z,56.34
2019-03-26T19:36:37.461Z,56.68
2019-03-26T19:39:07.307Z,56.46
2019-03-26T19:41:35.869Z,56.36
2019-03-26T19:44:04.288Z,57.34
2019-03-26T19:46:32.678Z,57.69
2019-03-26T19:49:01.078Z,59.93
2019-03-26T19:51:29.482Z,61.79
2019-03-26T19:53:57.887Z,62.44
2019-03-26T19:56:26.281Z,61.98
2019-03-26T19:58:54.692Z,59.38
2019-03-26T20:01:23.098Z,59.56
2019-03-26T20:03:51.491Z,60.69
2019-03-26T20:06:19.921Z,59.86
2019-03-26T20:08:48.323Z,57.71
2019-03-26T20:11:16.716Z,56.53
2019-03-26T20:13:45.141Z,56.38
2019-03-26T20:16:13.540Z,57.20
2019-03-26T20:18:41.937Z,58.64
2019-03-26T20:21:10.356Z,58.54
2019-03-26T20:23:38.764Z,58.25
2019-03-26T20:26:07.150Z,58.24
2019-03-26T20:28:35.566Z,58.37
2019-03-26T20:31:03.958Z,58.39
2019-03-26T20:33:32.357Z,58.10
2019-03-26T20:36:01.095Z,57.98
2019-03-26T20:38:29.486Z,58.16
2019-03-26T20:40:57.873Z,58.59
2019-03-26T20:43:36.731Z,58.63
2019-03-26T20:45:56.721Z,59.21
2019-03-26T20:48:25.121Z,59.15
2019-03-26T20:50:53.539Z,58.83
2019-03-26T20:53:21.929Z,58.76
2019-03-26T20:55:54.425Z,58.71
2019-03-26T20:58:20.760Z,58.67
2019-03-26T21:00:49.187Z,60.13
2019-03-26T21:03:17.556Z,60.84
2019-03-26T21:05:45.979Z,60.39
2019-03-26T21:08:14.377Z,59.79
2019-03-26T21:10:42.773Z,60.25
2019-03-26T21:13:11.207Z,60.72
2019-03-26T21:15:42.619Z,60.11
2019-03-26T21:18:09.713Z,60.32
2019-03-26T21:20:38.209Z,60.46
2019-03-26T21:23:06.535Z,60.59
2019-03-26T21:25:35.295Z,60.34
2019-03-26T21:28:03.882Z,60.16
2019-03-26T21:30:32.272Z,60.40
2019-03-26T21:33:00.663Z,60.43
2019-03-26T21:35:29.210Z,60.69
2019-03-26T21:37:57.662Z,60.84
2019-03-26T21:40:27.694Z,61.02
2019-03-26T21:42:56.113Z,60.81
2019-03-26T21:45:27.553Z,60.92
2019-03-26T21:47:55.968Z,60.98
2019-03-26T21:50:24.365Z,60.87
2019-03-26T21:52:52.768Z,61.14
2019-03-26T21:55:21.185Z,61.36
2019-03-26T21:57:49.579Z,61.35
2019-03-26T22:00:18.252Z,61.52
2019-03-26T22:02:46.645Z,61.31
2019-03-26T22:05:15.232Z,61.84
2019-03-26T22:07:43.653Z,62.15
2019-03-26T22:10:12.490Z,62.31
2019-03-26T22:12:40.886Z,62.18
2019-03-26T22:15:10.547Z,62.07
2019-03-26T22:17:38.944Z,62.00
2019-03-26T22:20:07.784Z,62.28
2019-03-26T22:22:36.205Z,62.37
2019-03-26T22:25:06.534Z,63.50
2019-03-26T22:27:34.928Z,62.83
2019-03-26T22:30:03.618Z,62.97
2019-03-26T22:32:32.022Z,62.44
2019-03-26T22:35:01.069Z,61.46
2019-03-26T22:37:29.460Z,61.12
2019-03-26T22:39:58.188Z,60.78
2019-03-26T22:42:26.607Z,60.59
2019-03-26T22:44:54.998Z,60.64
2019-03-26T22:47:23.732Z,62.44
2019-03-26T22:49:52.161Z,62.22
2019-03-26T22:52:20.551Z,62.96
2019-03-26T22:54:48.941Z,63.04
2019-03-26T22:57:17.376Z,62.86
2019-03-26T22:59:45.784Z,62.50
2019-03-26T23:02:14.180Z,62.71
2019-03-26T23:04:42.577Z,63.86
2019-03-26T23:07:10.983Z,63.77
2019-03-26T23:09:39.400Z,63.46
2019-03-26T23:12:07.795Z,64.95
2019-03-26T23:14:45.139Z,64.14
2019-03-26T23:17:06.410Z,64.11
2019-03-26T23:19:35.118Z,63.53
2019-03-26T23:22:03.514Z,62.73
2019-03-26T23:24:31.951Z,62.84
2019-03-26T23:27:00.343Z,63.08
2019-03-26T23:29:28.744Z,63.25
2019-03-26T23:31:57.245Z,63.99
2019-03-26T23:34:25.583Z,63.60
2019-03-26T23:36:53.983Z,62.46
2019-03-26T23:39:22.382Z,62.59
2019-03-26T23:41:50.773Z,63.34
2019-03-26T23:44:25.641Z,61.91
2019-03-26T23:46:49.321Z,62.79
2019-03-26T23:49:17.715Z,62.06
2019-03-26T23:51:46.129Z,62.96
2019-03-26T23:54:14.531Z,62.75
2019-03-26T23:56:42.923Z,62.61
2019-03-26T23:59:11.344Z,61.94
